sensor_id;sensor_type;location;lat;lon;timestamp;P1;durP1;ratioP1;P2;durP2;ratioP2
1479;SDS011;732;51.698;4.886;2024-03-23T00:52:57;22.33;;;7.20;;
1479;SDS011;732;51.698;4.886;2024-03-23T00:55:26;15.10;;;6.20;;
1479;SDS011;732;51.698;4.886;2024-03-23T00:57:52;16.90;;;6.00;;
1479;SDS011;732;51.698;4.886;2024-03-23T01:00:20;16.50;;;6.63;;
1479;SDS011;732;51.698;4.886;2024-03-23T01:02:47;20.17;;;6.43;;
1479;SDS011;732;51.698;4.886;2024-03-23T01:05:15;18.83;;;7.77;;
1479;SDS011;732;51.698;4.886;2024-03-23T01:07:43;24.80;;;11.07;;
1479;SDS011;732;51.698;4.886;2024-03-23T01:10:11;19.73;;;8.20;;
1479;SDS011;732;51.698;4.886;2024-03-23T01:12:38;30.27;;;11.63;;
1479;SDS011;732;51.698;4.886;2024-03-23T01:15:06;17.17;;;6.60;;
1479;SDS011;732;51.698;4.886;2024-03-23T01:17:33;18.33;;;6.90;;
1479;SDS011;732;51.698;4.886;2024-03-23T01:20:01;28.13;;;4.80;;
1479;SDS011;732;51.698;4.886;2024-03-23T01:22:28;15.70;;;4.33;;
1479;SDS011;732;51.698;4.886;2024-03-23T01:24:57;12.97;;;3.93;;
1479;SDS011;732;51.698;4.886;2024-03-23T01:27:25;20.73;;;4.10;;
1479;SDS011;732;51.698;4.886;2024-03-23T01:29:52;11.00;;;3.77;;
1479;SDS011;732;51.698;4.886;2024-03-23T01:32:20;12.97;;;3.90;;
1479;SDS011;732;51.698;4.886;2024-03-23T01:34:47;10.70;;;4.10;;
1479;SDS011;732;51.698;4.886;2024-03-23T01:37:14;14.20;;;3.90;;
1479;SDS011;732;51.698;4.886;2024-03-23T01:39:42;19.30;;;4.20;;
1479;SDS011;732;51.698;4.886;2024-03-23T01:42:10;13.90;;;4.10;;
1479;SDS011;732;51.698;4.886;2024-03-23T01:44:38;16.77;;;4.67;;
1479;SDS011;732;51.698;4.886;2024-03-23T01:47:06;20.93;;;5.20;;
1479;SDS011;732;51.698;4.886;2024-03-23T01:49:37;14.60;;;4.93;;
1479;SDS011;732;51.698;4.886;2024-03-23T01:52:04;24.67;;;5.23;;
1479;SDS011;732;51.698;4.886;2024-03-23T01:54:35;20.23;;;5.30;;
1479;SDS011;732;51.698;4.886;2024-03-23T01:57:02;14.93;;;5.90;;
1479;SDS011;732;51.698;4.886;2024-03-23T01:59:32;19.07;;;5.67;;
1479;SDS011;732;51.698;4.886;2024-03-23T02:01:59;20.10;;;5.73;;
1479;SDS011;732;51.698;4.886;2024-03-23T02:04:28;19.53;;;5.20;;
1479;SDS011;732;51.698;4.886;2024-03-23T02:06:55;17.70;;;5.30;;
1479;SDS011;732;51.698;4.886;2024-03-23T02:09:22;23.50;;;5.43;;
1479;SDS011;732;51.698;4.886;2024-03-23T02:11:49;29.50;;;5.90;;
1479;SDS011;732;51.698;4.886;2024-03-23T02:14:17;16.67;;;6.40;;
1479;SDS011;732;51.698;4.886;2024-03-23T02:16:46;13.10;;;4.70;;
1479;SDS011;732;51.698;4.886;2024-03-23T02:19:13;22.83;;;5.30;;
1479;SDS011;732;51.698;4.886;2024-03-23T02:21:40;19.53;;;5.20;;
1479;SDS011;732;51.698;4.886;2024-03-23T02:24:09;21.43;;;5.97;;
1479;SDS011;732;51.698;4.886;2024-03-23T02:26:35;12.80;;;4.10;;
1479;SDS011;732;51.698;4.886;2024-03-23T02:29:03;16.53;;;5.10;;
1479;SDS011;732;51.698;4.886;2024-03-23T02:31:30;17.20;;;4.90;;
1479;SDS011;732;51.698;4.886;2024-03-23T02:33:58;23.47;;;6.40;;
1479;SDS011;732;51.698;4.886;2024-03-23T02:36:24;25.53;;;6.70;;
1479;SDS011;732;51.698;4.886;2024-03-23T02:38:52;19.37;;;4.97;;
1479;SDS011;732;51.698;4.886;2024-03-23T02:41:21;29.53;;;7.57;;
1479;SDS011;732;51.698;4.886;2024-03-23T02:43:49;22.60;;;4.67;;
1479;SDS011;732;51.698;4.886;2024-03-23T02:46:16;16.57;;;4.40;;
1479;SDS011;732;51.698;4.886;2024-03-23T02:48:44;18.30;;;5.00;;
1479;SDS011;732;51.698;4.886;2024-03-23T02:51:10;13.70;;;4.63;;
1479;SDS011;732;51.698;4.886;2024-03-23T02:53:38;27.97;;;5.80;;
1479;SDS011;732;51.698;4.886;2024-03-23T02:56:06;17.97;;;5.37;;
1479;SDS011;732;51.698;4.886;2024-03-23T02:58:35;24.60;;;6.87;;
1479;SDS011;732;51.698;4.886;2024-03-23T03:01:02;20.13;;;5.67;;
1479;SDS011;732;51.698;4.886;2024-03-23T03:03:30;22.20;;;6.03;;
1479;SDS011;732;51.698;4.886;2024-03-23T03:05:56;30.53;;;7.83;;
1479;SDS011;732;51.698;4.886;2024-03-23T03:08:24;18.30;;;6.50;;
1479;SDS011;732;51.698;4.886;2024-03-23T03:10:51;20.30;;;6.53;;
1479;SDS011;732;51.698;4.886;2024-03-23T03:13:19;23.47;;;6.47;;
1479;SDS011;732;51.698;4.886;2024-03-23T03:15:47;24.83;;;6.80;;
1479;SDS011;732;51.698;4.886;2024-03-23T03:18:18;21.37;;;6.20;;
1479;SDS011;732;51.698;4.886;2024-03-23T03:20:47;19.27;;;6.23;;
1479;SDS011;732;51.698;4.886;2024-03-23T03:23:15;24.93;;;6.53;;
1479;SDS011;732;51.698;4.886;2024-03-23T03:25:43;23.50;;;6.13;;
1479;SDS011;732;51.698;4.886;2024-03-23T03:28:11;18.67;;;6.60;;
1479;SDS011;732;51.698;4.886;2024-03-23T03:30:37;26.43;;;6.73;;
1479;SDS011;732;51.698;4.886;2024-03-23T03:33:06;21.17;;;6.57;;
1479;SDS011;732;51.698;4.886;2024-03-23T03:35:33;28.43;;;6.70;;
1479;SDS011;732;51.698;4.886;2024-03-23T03:38:00;24.83;;;6.73;;
1479;SDS011;732;51.698;4.886;2024-03-23T03:40:27;21.73;;;6.80;;
1479;SDS011;732;51.698;4.886;2024-03-23T03:42:55;27.80;;;7.50;;
1479;SDS011;732;51.698;4.886;2024-03-23T03:45:22;34.97;;;6.80;;
1479;SDS011;732;51.698;4.886;2024-03-23T03:47:50;22.30;;;6.20;;
1479;SDS011;732;51.698;4.886;2024-03-23T03:50:19;32.20;;;7.40;;
1479;SDS011;732;51.698;4.886;2024-03-23T03:52:48;30.43;;;6.93;;
1479;SDS011;732;51.698;4.886;2024-03-23T03:55:15;22.60;;;6.37;;
1479;SDS011;732;51.698;4.886;2024-03-23T03:57:43;20.90;;;6.40;;
1479;SDS011;732;51.698;4.886;2024-03-23T04:00:10;21.87;;;6.03;;
1479;SDS011;732;51.698;4.886;2024-03-23T04:02:39;26.27;;;6.90;;
1479;SDS011;732;51.698;4.886;2024-03-23T04:05:07;17.07;;;5.97;;
1479;SDS011;732;51.698;4.886;2024-03-23T04:07:37;24.17;;;6.53;;
1479;SDS011;732;51.698;4.886;2024-03-23T04:10:04;34.03;;;6.07;;
1479;SDS011;732;51.698;4.886;2024-03-23T04:12:33;25.80;;;6.00;;
1479;SDS011;732;51.698;4.886;2024-03-23T04:15:00;19.00;;;6.20;;
1479;SDS011;732;51.698;4.886;2024-03-23T04:17:30;15.73;;;5.50;;
1479;SDS011;732;51.698;4.886;2024-03-23T04:19:59;20.43;;;5.20;;
1479;SDS011;732;51.698;4.886;2024-03-23T04:22:28;16.43;;;5.50;;
1479;SDS011;732;51.698;4.886;2024-03-23T04:24:56;23.93;;;5.80;;
1479;SDS011;732;51.698;4.886;2024-03-23T04:27:24;18.67;;;4.87;;
1479;SDS011;732;51.698;4.886;2024-03-23T04:29:51;33.23;;;6.07;;
1479;SDS011;732;51.698;4.886;2024-03-23T04:32:20;19.83;;;5.77;;
1479;SDS011;732;51.698;4.886;2024-03-23T04:34:47;19.70;;;4.90;;
1479;SDS011;732;51.698;4.886;2024-03-23T04:37:16;32.80;;;5.63;;
1479;SDS011;732;51.698;4.886;2024-03-23T04:39:45;23.07;;;4.80;;
1479;SDS011;732;51.698;4.886;2024-03-23T04:42:15;18.70;;;5.30;;
1479;SDS011;732;51.698;4.886;2024-03-23T04:44:43;12.17;;;5.13;;
1479;SDS011;732;51.698;4.886;2024-03-23T04:47:11;15.77;;;4.20;;
1479;SDS011;732;51.698;4.886;2024-03-23T04:49:39;17.93;;;3.90;;
1479;SDS011;732;51.698;4.886;2024-03-23T04:52:07;14.10;;;4.80;;
1479;SDS011;732;51.698;4.886;2024-03-23T04:54:35;18.50;;;4.50;;
1479;SDS011;732;51.698;4.886;2024-03-23T04:57:03;21.60;;;5.03;;
1479;SDS011;732;51.698;4.886;2024-03-23T04:59:32;14.57;;;4.00;;
1479;SDS011;732;51.698;4.886;2024-03-23T05:01:59;17.90;;;6.17;;
1479;SDS011;732;51.698;4.886;2024-03-23T05:04:28;21.20;;;4.20;;
1479;SDS011;732;51.698;4.886;2024-03-23T05:06:55;18.67;;;4.67;;
1479;SDS011;732;51.698;4.886;2024-03-23T05:09:22;16.53;;;4.90;;
1479;SDS011;732;51.698;4.886;2024-03-23T05:11:49;17.00;;;4.40;;
1479;SDS011;732;51.698;4.886;2024-03-23T05:14:17;20.80;;;3.73;;
1479;SDS011;732;51.698;4.886;2024-03-23T05:16:46;16.20;;;3.73;;
1479;SDS011;732;51.698;4.886;2024-03-23T05:19:12;18.40;;;3.77;;
1479;SDS011;732;51.698;4.886;2024-03-23T05:21:40;20.43;;;3.70;;
1479;SDS011;732;51.698;4.886;2024-03-23T05:24:07;10.70;;;3.30;;
1479;SDS011;732;51.698;4.886;2024-03-23T05:26:35;16.67;;;3.90;;
1479;SDS011;732;51.698;4.886;2024-03-23T05:29:02;15.23;;;3.90;;
1479;SDS011;732;51.698;4.886;2024-03-23T05:31:32;20.80;;;4.30;;
1479;SDS011;732;51.698;4.886;2024-03-23T05:34:00;19.03;;;5.33;;
1479;SDS011;732;51.698;4.886;2024-03-23T05:36:29;12.90;;;3.73;;
1479;SDS011;732;51.698;4.886;2024-03-23T05:38:56;18.60;;;3.77;;
1479;SDS011;732;51.698;4.886;2024-03-23T05:41:24;22.50;;;4.80;;
1479;SDS011;732;51.698;4.886;2024-03-23T05:43:51;22.43;;;4.60;;
1479;SDS011;732;51.698;4.886;2024-03-23T05:46:18;21.50;;;5.30;;
1479;SDS011;732;51.698;4.886;2024-03-23T05:48:45;11.97;;;3.60;;
1479;SDS011;732;51.698;4.886;2024-03-23T05:51:14;13.30;;;3.73;;
1479;SDS011;732;51.698;4.886;2024-03-23T05:53:42;20.30;;;3.57;;
1479;SDS011;732;51.698;4.886;2024-03-23T05:56:10;13.97;;;4.00;;
1479;SDS011;732;51.698;4.886;2024-03-23T05:58:37;15.03;;;4.10;;
1479;SDS011;732;51.698;4.886;2024-03-23T06:01:05;31.37;;;4.50;;
1479;SDS011;732;51.698;4.886;2024-03-23T06:03:33;17.23;;;4.40;;
1479;SDS011;732;51.698;4.886;2024-03-23T06:06:02;16.87;;;4.63;;
1479;SDS011;732;51.698;4.886;2024-03-23T06:08:31;26.53;;;4.40;;
1479;SDS011;732;51.698;4.886;2024-03-23T06:10:59;11.10;;;3.90;;
1479;SDS011;732;51.698;4.886;2024-03-23T06:13:25;19.00;;;4.43;;
1479;SDS011;732;51.698;4.886;2024-03-23T06:15:55;25.97;;;4.90;;
1479;SDS011;732;51.698;4.886;2024-03-23T06:18:22;9.83;;;3.40;;
1479;SDS011;732;51.698;4.886;2024-03-23T06:20:51;15.70;;;4.03;;
1479;SDS011;732;51.698;4.886;2024-03-23T06:23:18;15.10;;;3.90;;
1479;SDS011;732;51.698;4.886;2024-03-23T06:25:47;9.43;;;3.80;;
1479;SDS011;732;51.698;4.886;2024-03-23T06:28:14;18.63;;;5.07;;
1479;SDS011;732;51.698;4.886;2024-03-23T06:30:42;12.80;;;4.50;;
1479;SDS011;732;51.698;4.886;2024-03-23T06:33:09;10.90;;;4.00;;
1479;SDS011;732;51.698;4.886;2024-03-23T06:35:36;9.83;;;3.73;;
1479;SDS011;732;51.698;4.886;2024-03-23T06:38:03;15.13;;;3.80;;
1479;SDS011;732;51.698;4.886;2024-03-23T06:40:32;9.20;;;2.73;;
1479;SDS011;732;51.698;4.886;2024-03-23T06:42:59;11.10;;;3.40;;
1479;SDS011;732;51.698;4.886;2024-03-23T06:45:27;13.73;;;3.13;;
1479;SDS011;732;51.698;4.886;2024-03-23T06:47:54;12.23;;;3.40;;
1479;SDS011;732;51.698;4.886;2024-03-23T06:50:23;11.90;;;3.30;;
1479;SDS011;732;51.698;4.886;2024-03-23T06:52:51;31.23;;;4.40;;
1479;SDS011;732;51.698;4.886;2024-03-23T06:55:18;13.80;;;4.43;;
1479;SDS011;732;51.698;4.886;2024-03-23T06:57:45;10.57;;;3.97;;
1479;SDS011;732;51.698;4.886;2024-03-23T07:00:14;14.80;;;4.40;;
1479;SDS011;732;51.698;4.886;2024-03-23T07:02:41;13.57;;;3.67;;
1479;SDS011;732;51.698;4.886;2024-03-23T07:05:10;13.03;;;3.67;;
1479;SDS011;732;51.698;4.886;2024-03-23T07:07:37;16.40;;;3.73;;
1479;SDS011;732;51.698;4.886;2024-03-23T07:10:05;14.37;;;3.70;;
1479;SDS011;732;51.698;4.886;2024-03-23T07:12:33;18.10;;;3.30;;
1479;SDS011;732;51.698;4.886;2024-03-23T07:15:01;7.97;;;2.77;;
1479;SDS011;732;51.698;4.886;2024-03-23T07:17:29;10.30;;;2.57;;
1479;SDS011;732;51.698;4.886;2024-03-23T07:19:58;15.20;;;3.40;;
1479;SDS011;732;51.698;4.886;2024-03-23T07:22:26;17.03;;;3.70;;
1479;SDS011;732;51.698;4.886;2024-03-23T07:24:54;19.73;;;4.07;;
1479;SDS011;732;51.698;4.886;2024-03-23T07:27:22;14.03;;;3.60;;
1479;SDS011;732;51.698;4.886;2024-03-23T07:29:50;19.67;;;3.77;;
1479;SDS011;732;51.698;4.886;2024-03-23T07:32:16;11.03;;;3.50;;
1479;SDS011;732;51.698;4.886;2024-03-23T07:34:45;12.80;;;3.13;;
1479;SDS011;732;51.698;4.886;2024-03-23T07:37:12;16.97;;;3.33;;
1479;SDS011;732;51.698;4.886;2024-03-23T07:39:41;15.17;;;3.17;;
1479;SDS011;732;51.698;4.886;2024-03-23T07:42:08;16.13;;;2.80;;
1479;SDS011;732;51.698;4.886;2024-03-23T07:44:35;9.43;;;3.30;;
1479;SDS011;732;51.698;4.886;2024-03-23T07:47:03;11.00;;;2.73;;
1479;SDS011;732;51.698;4.886;2024-03-23T07:49:31;16.90;;;3.00;;
1479;SDS011;732;51.698;4.886;2024-03-23T07:51:59;12.33;;;2.80;;
1479;SDS011;732;51.698;4.886;2024-03-23T07:54:27;14.13;;;2.80;;
1479;SDS011;732;51.698;4.886;2024-03-23T07:56:54;15.00;;;3.43;;
1479;SDS011;732;51.698;4.886;2024-03-23T07:59:22;18.53;;;2.60;;
1479;SDS011;732;51.698;4.886;2024-03-23T08:01:49;8.40;;;2.70;;
1479;SDS011;732;51.698;4.886;2024-03-23T08:04:16;16.77;;;2.73;;
1479;SDS011;732;51.698;4.886;2024-03-23T08:06:43;12.20;;;2.80;;
1479;SDS011;732;51.698;4.886;2024-03-23T08:09:12;7.90;;;2.90;;
1479;SDS011;732;51.698;4.886;2024-03-23T08:11:39;11.30;;;2.63;;
1479;SDS011;732;51.698;4.886;2024-03-23T08:14:09;11.77;;;2.50;;
1479;SDS011;732;51.698;4.886;2024-03-23T08:16:36;8.57;;;2.50;;
1479;SDS011;732;51.698;4.886;2024-03-23T08:19:04;10.80;;;2.40;;
1479;SDS011;732;51.698;4.886;2024-03-23T08:21:30;11.27;;;2.40;;
1479;SDS011;732;51.698;4.886;2024-03-23T08:23:58;13.90;;;2.57;;
1479;SDS011;732;51.698;4.886;2024-03-23T08:26:30;14.40;;;2.37;;
1479;SDS011;732;51.698;4.886;2024-03-23T08:28:58;7.30;;;2.37;;
1479;SDS011;732;51.698;4.886;2024-03-23T08:31:24;8.90;;;2.03;;
1479;SDS011;732;51.698;4.886;2024-03-23T08:33:52;13.40;;;2.80;;
1479;SDS011;732;51.698;4.886;2024-03-23T08:36:19;12.80;;;2.73;;
1479;SDS011;732;51.698;4.886;2024-03-23T08:38:46;7.67;;;1.97;;
1479;SDS011;732;51.698;4.886;2024-03-23T08:41:15;9.57;;;3.13;;
1479;SDS011;732;51.698;4.886;2024-03-23T08:43:44;11.77;;;2.60;;
1479;SDS011;732;51.698;4.886;2024-03-23T08:46:12;10.40;;;2.13;;
1479;SDS011;732;51.698;4.886;2024-03-23T08:48:42;15.40;;;2.37;;
1479;SDS011;732;51.698;4.886;2024-03-23T08:51:11;11.23;;;2.80;;
1479;SDS011;732;51.698;4.886;2024-03-23T08:53:41;11.60;;;2.87;;
1479;SDS011;732;51.698;4.886;2024-03-23T08:56:08;16.93;;;3.17;;
1479;SDS011;732;51.698;4.886;2024-03-23T08:58:37;10.63;;;2.53;;
1479;SDS011;732;51.698;4.886;2024-03-23T09:01:07;12.53;;;2.70;;
1479;SDS011;732;51.698;4.886;2024-03-23T09:03:36;12.93;;;2.70;;
1479;SDS011;732;51.698;4.886;2024-03-23T09:06:06;9.73;;;2.63;;
1479;SDS011;732;51.698;4.886;2024-03-23T09:08:37;9.60;;;2.90;;
1479;SDS011;732;51.698;4.886;2024-03-23T09:11:05;7.60;;;2.00;;
1479;SDS011;732;51.698;4.886;2024-03-23T09:13:36;12.23;;;3.03;;
1479;SDS011;732;51.698;4.886;2024-03-23T09:16:04;9.00;;;2.30;;
1479;SDS011;732;51.698;4.886;2024-03-23T09:18:37;16.77;;;2.37;;
1479;SDS011;732;51.698;4.886;2024-03-23T09:21:04;11.60;;;2.47;;
1479;SDS011;732;51.698;4.886;2024-03-23T09:23:40;6.33;;;2.00;;
1479;SDS011;732;51.698;4.886;2024-03-23T09:26:09;13.03;;;2.40;;
1479;SDS011;732;51.698;4.886;2024-03-23T09:28:37;10.03;;;2.30;;
1479;SDS011;732;51.698;4.886;2024-03-23T09:31:03;10.50;;;2.30;;
1479;SDS011;732;51.698;4.886;2024-03-23T09:33:32;8.83;;;1.90;;
1479;SDS011;732;51.698;4.886;2024-03-23T09:36:02;8.57;;;2.40;;
1479;SDS011;732;51.698;4.886;2024-03-23T09:38:31;8.90;;;2.37;;
1479;SDS011;732;51.698;4.886;2024-03-23T09:40:58;11.87;;;2.40;;
1479;SDS011;732;51.698;4.886;2024-03-23T09:43:26;9.27;;;2.60;;
1479;SDS011;732;51.698;4.886;2024-03-23T09:45:53;10.27;;;3.17;;
1479;SDS011;732;51.698;4.886;2024-03-23T09:48:20;7.00;;;2.00;;
1479;SDS011;732;51.698;4.886;2024-03-23T09:50:47;7.70;;;2.93;;
1479;SDS011;732;51.698;4.886;2024-03-23T09:53:17;14.77;;;2.53;;
1479;SDS011;732;51.698;4.886;2024-03-23T09:55:44;7.20;;;2.10;;
1479;SDS011;732;51.698;4.886;2024-03-23T09:58:16;11.03;;;2.43;;
1479;SDS011;732;51.698;4.886;2024-03-23T10:00:44;9.80;;;2.37;;
1479;SDS011;732;51.698;4.886;2024-03-23T10:03:12;8.27;;;2.07;;
1479;SDS011;732;51.698;4.886;2024-03-23T10:05:40;10.70;;;2.17;;
1479;SDS011;732;51.698;4.886;2024-03-23T10:08:18;7.30;;;1.87;;
1479;SDS011;732;51.698;4.886;2024-03-23T10:10:45;11.27;;;1.87;;
1479;SDS011;732;51.698;4.886;2024-03-23T10:13:23;10.33;;;2.53;;
1479;SDS011;732;51.698;4.886;2024-03-23T10:15:54;11.37;;;2.60;;
1479;SDS011;732;51.698;4.886;2024-03-23T10:18:24;7.13;;;1.90;;
1479;SDS011;732;51.698;4.886;2024-03-23T10:20:52;9.87;;;2.40;;
1479;SDS011;732;51.698;4.886;2024-03-23T10:23:35;11.10;;;1.90;;
1479;SDS011;732;51.698;4.886;2024-03-23T10:26:12;11.27;;;2.50;;
1479;SDS011;732;51.698;4.886;2024-03-23T10:28:52;12.20;;;2.47;;
1479;SDS011;732;51.698;4.886;2024-03-23T10:31:22;12.50;;;2.03;;
1479;SDS011;732;51.698;4.886;2024-03-23T10:33:49;12.00;;;3.07;;
1479;SDS011;732;51.698;4.886;2024-03-23T10:36:20;7.40;;;2.27;;
1479;SDS011;732;51.698;4.886;2024-03-23T10:38:49;12.90;;;2.30;;
1479;SDS011;732;51.698;4.886;2024-03-23T10:41:18;7.10;;;1.53;;
1479;SDS011;732;51.698;4.886;2024-03-23T10:43:45;6.37;;;1.60;;
1479;SDS011;732;51.698;4.886;2024-03-23T10:46:14;5.50;;;1.60;;
1479;SDS011;732;51.698;4.886;2024-03-23T10:48:41;6.50;;;2.10;;
1479;SDS011;732;51.698;4.886;2024-03-23T10:51:10;6.53;;;1.90;;
1479;SDS011;732;51.698;4.886;2024-03-23T10:53:38;11.20;;;2.23;;
1479;SDS011;732;51.698;4.886;2024-03-23T10:56:08;15.47;;;2.30;;
1479;SDS011;732;51.698;4.886;2024-03-23T10:58:37;11.20;;;2.37;;
1479;SDS011;732;51.698;4.886;2024-03-23T11:01:10;7.23;;;2.13;;
1479;SDS011;732;51.698;4.886;2024-03-23T11:03:37;14.83;;;2.60;;
1479;SDS011;732;51.698;4.886;2024-03-23T11:06:11;9.83;;;2.77;;
1479;SDS011;732;51.698;4.886;2024-03-23T11:09:03;14.87;;;2.80;;
1479;SDS011;732;51.698;4.886;2024-03-23T11:11:50;10.00;;;2.43;;
1479;SDS011;732;51.698;4.886;2024-03-23T11:14:21;12.30;;;2.50;;
1479;SDS011;732;51.698;4.886;2024-03-23T11:16:55;15.00;;;2.70;;
1479;SDS011;732;51.698;4.886;2024-03-23T11:19:35;9.90;;;2.90;;
1479;SDS011;732;51.698;4.886;2024-03-23T11:22:06;6.63;;;2.10;;
1479;SDS011;732;51.698;4.886;2024-03-23T11:24:33;6.50;;;2.03;;
1479;SDS011;732;51.698;4.886;2024-03-23T11:27:02;12.73;;;2.37;;
1479;SDS011;732;51.698;4.886;2024-03-23T11:29:41;7.10;;;1.90;;
1479;SDS011;732;51.698;4.886;2024-03-23T11:32:09;13.27;;;2.27;;
1479;SDS011;732;51.698;4.886;2024-03-23T11:34:39;12.10;;;2.43;;
1479;SDS011;732;51.698;4.886;2024-03-23T11:37:08;10.50;;;2.30;;
1479;SDS011;732;51.698;4.886;2024-03-23T11:39:35;13.73;;;2.57;;
1479;SDS011;732;51.698;4.886;2024-03-23T11:42:03;9.33;;;2.80;;
1479;SDS011;732;51.698;4.886;2024-03-23T11:44:30;14.93;;;2.47;;
1479;SDS011;732;51.698;4.886;2024-03-23T11:47:07;21.33;;;2.70;;
1479;SDS011;732;51.698;4.886;2024-03-23T11:49:34;11.30;;;2.23;;
1479;SDS011;732;51.698;4.886;2024-03-23T11:52:06;15.67;;;2.03;;
1479;SDS011;732;51.698;4.886;2024-03-23T11:54:35;6.50;;;2.33;;
1479;SDS011;732;51.698;4.886;2024-03-23T11:57:03;13.30;;;2.70;;
1479;SDS011;732;51.698;4.886;2024-03-23T11:59:34;15.00;;;2.90;;
1479;SDS011;732;51.698;4.886;2024-03-23T12:02:05;11.90;;;2.27;;
1479;SDS011;732;51.698;4.886;2024-03-23T12:04:33;12.43;;;2.53;;
1479;SDS011;732;51.698;4.886;2024-03-23T12:07:11;8.57;;;2.10;;
1479;SDS011;732;51.698;4.886;2024-03-23T12:09:39;11.30;;;2.53;;
1479;SDS011;732;51.698;4.886;2024-03-23T12:12:08;10.00;;;1.90;;
1479;SDS011;732;51.698;4.886;2024-03-23T12:14:40;10.97;;;2.07;;
1479;SDS011;732;51.698;4.886;2024-03-23T12:17:11;11.77;;;2.90;;
1479;SDS011;732;51.698;4.886;2024-03-23T12:19:40;9.93;;;2.40;;
1479;SDS011;732;51.698;4.886;2024-03-23T12:22:12;7.00;;;2.20;;
1479;SDS011;732;51.698;4.886;2024-03-23T12:24:38;7.53;;;1.30;;
1479;SDS011;732;51.698;4.886;2024-03-23T12:27:11;6.00;;;1.63;;
1479;SDS011;732;51.698;4.886;2024-03-23T12:29:38;3.20;;;1.87;;
1479;SDS011;732;51.698;4.886;2024-03-23T12:32:07;9.80;;;2.30;;
1479;SDS011;732;51.698;4.886;2024-03-23T12:34:33;9.67;;;2.10;;
1479;SDS011;732;51.698;4.886;2024-03-23T12:37:02;11.67;;;2.37;;
1479;SDS011;732;51.698;4.886;2024-03-23T12:39:30;10.50;;;1.87;;
1479;SDS011;732;51.698;4.886;2024-03-23T12:41:57;7.40;;;1.53;;
1479;SDS011;732;51.698;4.886;2024-03-23T12:44:24;11.73;;;2.57;;
1479;SDS011;732;51.698;4.886;2024-03-23T12:46:52;9.83;;;2.67;;
1479;SDS011;732;51.698;4.886;2024-03-23T12:49:18;12.13;;;1.83;;
1479;SDS011;732;51.698;4.886;2024-03-23T12:51:49;12.90;;;2.13;;
1479;SDS011;732;51.698;4.886;2024-03-23T12:54:20;4.60;;;1.40;;
1479;SDS011;732;51.698;4.886;2024-03-23T12:56:52;8.93;;;2.23;;
1479;SDS011;732;51.698;4.886;2024-03-23T12:59:19;8.87;;;2.00;;
1479;SDS011;732;51.698;4.886;2024-03-23T13:01:46;9.43;;;2.00;;
1479;SDS011;732;51.698;4.886;2024-03-23T13:04:13;6.30;;;1.73;;
1479;SDS011;732;51.698;4.886;2024-03-23T13:06:42;4.97;;;1.60;;
1479;SDS011;732;51.698;4.886;2024-03-23T13:09:09;6.20;;;1.63;;
1479;SDS011;732;51.698;4.886;2024-03-23T13:11:37;8.23;;;2.23;;
1479;SDS011;732;51.698;4.886;2024-03-23T13:14:05;7.80;;;2.70;;
1479;SDS011;732;51.698;4.886;2024-03-23T13:16:33;14.53;;;3.50;;
1479;SDS011;732;51.698;4.886;2024-03-23T13:18:59;8.83;;;2.87;;
1479;SDS011;732;51.698;4.886;2024-03-23T13:21:28;11.67;;;2.37;;
1479;SDS011;732;51.698;4.886;2024-03-23T13:23:55;13.33;;;3.20;;
1479;SDS011;732;51.698;4.886;2024-03-23T13:26:22;14.40;;;4.13;;
1479;SDS011;732;51.698;4.886;2024-03-23T13:28:49;12.90;;;4.47;;
1479;SDS011;732;51.698;4.886;2024-03-23T13:31:18;14.83;;;5.07;;
1479;SDS011;732;51.698;4.886;2024-03-23T13:33:45;10.20;;;2.43;;
1479;SDS011;732;51.698;4.886;2024-03-23T13:36:13;14.27;;;3.20;;
1479;SDS011;732;51.698;4.886;2024-03-23T13:38:40;12.83;;;2.37;;
1479;SDS011;732;51.698;4.886;2024-03-23T13:41:08;7.90;;;1.83;;
1479;SDS011;732;51.698;4.886;2024-03-23T13:43:37;11.13;;;1.83;;
1479;SDS011;732;51.698;4.886;2024-03-23T13:46:06;4.87;;;2.13;;
1479;SDS011;732;51.698;4.886;2024-03-23T13:48:34;4.60;;;1.53;;
1479;SDS011;732;51.698;4.886;2024-03-23T13:51:02;3.70;;;1.67;;
1479;SDS011;732;51.698;4.886;2024-03-23T13:53:30;6.83;;;1.60;;
1479;SDS011;732;51.698;4.886;2024-03-23T13:55:59;11.60;;;1.90;;
1479;SDS011;732;51.698;4.886;2024-03-23T13:58:26;6.40;;;1.50;;
1479;SDS011;732;51.698;4.886;2024-03-23T14:00:55;6.40;;;2.20;;
1479;SDS011;732;51.698;4.886;2024-03-23T14:03:23;5.70;;;1.50;;
1479;SDS011;732;51.698;4.886;2024-03-23T14:05:52;14.10;;;1.77;;
1479;SDS011;732;51.698;4.886;2024-03-23T14:08:19;8.63;;;2.83;;
1479;SDS011;732;51.698;4.886;2024-03-23T14:10:47;5.73;;;1.10;;
1479;SDS011;732;51.698;4.886;2024-03-23T14:13:14;5.03;;;1.37;;
1479;SDS011;732;51.698;4.886;2024-03-23T14:15:42;6.07;;;1.60;;
1479;SDS011;732;51.698;4.886;2024-03-23T14:18:09;5.83;;;1.33;;
1479;SDS011;732;51.698;4.886;2024-03-23T14:20:36;11.23;;;1.97;;
1479;SDS011;732;51.698;4.886;2024-03-23T14:23:05;6.97;;;2.10;;
1479;SDS011;732;51.698;4.886;2024-03-23T14:25:33;6.00;;;1.50;;
1479;SDS011;732;51.698;4.886;2024-03-23T14:28:00;5.97;;;2.03;;
1479;SDS011;732;51.698;4.886;2024-03-23T14:30:27;6.13;;;1.83;;
1479;SDS011;732;51.698;4.886;2024-03-23T14:32:55;6.23;;;1.97;;
1479;SDS011;732;51.698;4.886;2024-03-23T14:35:23;12.40;;;2.10;;
1479;SDS011;732;51.698;4.886;2024-03-23T14:37:58;3.80;;;1.37;;
1479;SDS011;732;51.698;4.886;2024-03-23T14:40:27;6.10;;;1.97;;
1479;SDS011;732;51.698;4.886;2024-03-23T14:42:54;4.33;;;1.10;;
1479;SDS011;732;51.698;4.886;2024-03-23T14:45:22;1.37;;;0.90;;
1479;SDS011;732;51.698;4.886;2024-03-23T14:47:50;4.83;;;0.90;;
1479;SDS011;732;51.698;4.886;2024-03-23T14:50:17;1.73;;;1.00;;
1479;SDS011;732;51.698;4.886;2024-03-23T14:52:45;2.80;;;0.97;;
1479;SDS011;732;51.698;4.886;2024-03-23T14:55:13;2.40;;;1.17;;
1479;SDS011;732;51.698;4.886;2024-03-23T14:57:43;3.63;;;1.47;;
1479;SDS011;732;51.698;4.886;2024-03-23T15:00:11;4.37;;;1.30;;
1479;SDS011;732;51.698;4.886;2024-03-23T15:02:39;5.00;;;1.30;;
1479;SDS011;732;51.698;4.886;2024-03-23T15:05:07;4.33;;;1.40;;
1479;SDS011;732;51.698;4.886;2024-03-23T15:07:35;3.70;;;1.23;;
1479;SDS011;732;51.698;4.886;2024-03-23T15:10:04;4.70;;;1.13;;
1479;SDS011;732;51.698;4.886;2024-03-23T15:12:32;4.57;;;1.20;;
1479;SDS011;732;51.698;4.886;2024-03-23T15:15:01;1.47;;;0.83;;
1479;SDS011;732;51.698;4.886;2024-03-23T15:17:29;1.40;;;0.90;;
1479;SDS011;732;51.698;4.886;2024-03-23T15:20:03;3.10;;;0.97;;
1479;SDS011;732;51.698;4.886;2024-03-23T15:22:31;1.10;;;0.70;;
1479;SDS011;732;51.698;4.886;2024-03-23T15:24:59;5.73;;;1.10;;
1479;SDS011;732;51.698;4.886;2024-03-23T15:27:26;3.47;;;1.13;;
1479;SDS011;732;51.698;4.886;2024-03-23T15:29:55;4.13;;;1.10;;
1479;SDS011;732;51.698;4.886;2024-03-23T15:32:24;2.07;;;1.10;;
1479;SDS011;732;51.698;4.886;2024-03-23T15:34:52;2.50;;;0.93;;
1479;SDS011;732;51.698;4.886;2024-03-23T15:37:18;6.50;;;1.17;;
1479;SDS011;732;51.698;4.886;2024-03-23T15:39:46;1.60;;;0.60;;
1479;SDS011;732;51.698;4.886;2024-03-23T15:42:13;2.20;;;0.80;;
1479;SDS011;732;51.698;4.886;2024-03-23T15:44:40;3.53;;;0.70;;
1479;SDS011;732;51.698;4.886;2024-03-23T15:47:07;1.33;;;0.80;;
1479;SDS011;732;51.698;4.886;2024-03-23T15:49:38;2.17;;;0.80;;
1479;SDS011;732;51.698;4.886;2024-03-23T15:52:08;1.40;;;0.87;;
1479;SDS011;732;51.698;4.886;2024-03-23T15:54:35;1.57;;;0.90;;
1479;SDS011;732;51.698;4.886;2024-03-23T15:57:02;1.97;;;0.87;;
1479;SDS011;732;51.698;4.886;2024-03-23T15:59:30;2.37;;;1.10;;
1479;SDS011;732;51.698;4.886;2024-03-23T16:01:57;3.10;;;1.30;;
1479;SDS011;732;51.698;4.886;2024-03-23T16:04:25;2.30;;;1.13;;
1479;SDS011;732;51.698;4.886;2024-03-23T16:06:53;5.10;;;1.40;;
1479;SDS011;732;51.698;4.886;2024-03-23T16:09:20;3.73;;;1.17;;
1479;SDS011;732;51.698;4.886;2024-03-23T16:11:48;5.90;;;1.40;;
1479;SDS011;732;51.698;4.886;2024-03-23T16:14:16;4.37;;;1.40;;
1479;SDS011;732;51.698;4.886;2024-03-23T16:16:42;4.37;;;1.80;;
1479;SDS011;732;51.698;4.886;2024-03-23T16:19:12;4.20;;;1.77;;